Time;durP1;ratioP1;P1;durP2;ratioP2;P2;SDS_P1;SDS_P2;PMS_P1;PMS_P2;Temp;Humidity;BMP_temperature;BMP_pressure;BME280_temperature;BME280_humidity;BME280_pressure;Samples;Min_cycle;Max_cycle;Signal;HPM_P1;HPM_P2
2022/06/10 00:00:34;;;;;;;4.38;1.55;;;14.30;96.60;;;;;;4946826;28;20054;-51
2022/06/10 00:03:00;;;;;;;5.05;1.60;;;14.20;97.00;;;;;;4934319;28;20378;-48
2022/06/10 00:05:28;;;;;;;7.82;1.73;;;14.20;97.20;;;;;;4951180;28;20042;-51
2022/06/10 00:07:54;;;;;;;5.45;1.60;;;14.20;97.30;;;;;;4951760;28;20373;-52
2022/06/10 00:10:24;;;;;;;4.05;1.50;;;14.00;97.40;;;;;;4958802;28;20043;-47
2022/06/10 00:12:50;;;;;;;7.03;1.77;;;14.00;97.80;;;;;;4940040;28;20109;-51
2022/06/10 00:15:17;;;;;;;7.50;1.70;;;13.90;97.80;;;;;;4951306;28;20075;-52
2022/06/10 00:17:43;;;;;;;6.75;1.80;;;13.80;98.00;;;;;;4952408;28;20073;-48
2022/06/10 00:20:12;;;;;;;6.75;1.80;;;13.70;98.20;;;;;;4952875;28;20035;-51
2022/06/10 00:22:38;;;;;;;4.35;1.73;;;13.60;98.50;;;;;;4951287;28;20043;-52
2022/06/10 00:25:06;;;;;;;9.70;1.92;;;13.50;98.70;;;;;;4950474;28;20039;-51
2022/06/10 00:27:32;;;;;;;5.10;1.75;;;13.50;98.90;;;;;;4950246;28;20047;-50
2022/06/10 00:29:58;;;;;;;6.20;1.70;;;13.40;99.00;;;;;;4949628;28;20106;-51
2022/06/10 00:32:24;;;;;;;7.97;1.83;;;13.40;99.10;;;;;;4952133;28;20085;-52
2022/06/10 00:34:49;;;;;;;6.57;1.65;;;13.40;99.70;;;;;;4951150;28;20035;-49
2022/06/10 00:37:16;;;;;;;6.95;1.60;;;13.40;99.90;;;;;;4951388;28;20055;-48
2022/06/10 00:39:41;;;;;;;5.40;2.10;;;13.30;99.90;;;;;;4932048;29;20047;-52
2022/06/10 00:42:08;;;;;;;9.80;1.67;;;13.30;99.90;;;;;;4951409;28;20114;-51
2022/06/10 00:44:39;;;;;;;6.15;1.60;;;13.30;99.90;;;;;;4932113;28;20035;-50
2022/06/10 00:47:28;;;;;;;6.72;1.80;;;13.30;99.90;;;;;;4950964;28;20631;-49
2022/06/10 00:49:58;;;;;;;5.43;1.48;;;13.40;99.90;;;;;;4941710;28;20054;-51
2022/06/10 00:52:37;;;;;;;4.78;1.55;;;13.40;99.90;;;;;;4955641;28;20062;-48
2022/06/10 00:55:06;;;;;;;5.65;1.58;;;13.40;99.90;;;;;;4949467;28;20079;-50
2022/06/10 00:57:40;;;;;;;4.22;1.58;;;13.40;99.90;;;;;;4953279;28;20057;-51
2022/06/10 01:00:13;;;;;;;4.32;1.38;;;13.40;99.90;;;;;;4949656;28;20362;-49
2022/06/10 01:02:40;;;;;;;4.70;1.55;;;13.30;99.90;;;;;;4949387;29;20497;-51
2022/06/10 01:05:16;;;;;;;3.10;1.17;;;13.40;99.90;;;;;;4953139;28;20043;-50
2022/06/10 01:07:52;;;;;;;4.95;1.13;;;13.40;99.90;;;;;;4948896;28;20035;-52
2022/06/10 01:10:19;;;;;;;4.47;1.30;;;13.40;99.90;;;;;;4945714;28;20126;-51
2022/06/10 01:13:02;;;;;;;4.30;1.35;;;13.30;99.90;;;;;;4933315;29;20054;-51
2022/06/10 01:16:01;;;;;;;5.03;1.50;;;13.30;99.90;;;;;;4951574;28;20504;-52
2022/06/10 01:18:31;;;;;;;4.55;1.27;;;13.20;99.90;;;;;;4951954;28;20107;-52
2022/06/10 01:21:18;;;;;;;7.28;1.40;;;13.20;99.90;;;;;;4945717;29;20039;-51
2022/06/10 01:24:16;;;;;;;5.75;1.30;;;13.10;99.90;;;;;;4952297;28;20531;-51
2022/06/10 01:30:18;;;;;;;3.95;1.40;;;13.10;99.90;;;;;;4948318;28;20109;-51
2022/06/10 01:33:26;;;;;;;5.18;1.55;;;13.10;99.90;;;;;;4947028;28;20458;-48
2022/06/10 01:35:57;;;;;;;7.30;1.50;;;13.10;99.90;;;;;;4916936;28;20454;-51
2022/06/10 01:38:31;;;;;;;5.05;1.33;;;13.10;99.90;;;;;;4947473;28;20046;-52
2022/06/10 01:41:21;;;;;;;7.70;1.48;;;13.00;99.90;;;;;;4955685;28;20043;-47
2022/06/10 01:44:12;;;;;;;3.65;1.15;;;13.00;99.90;;;;;;4942477;28;20043;-51
2022/06/10 01:46:45;;;;;;;3.00;1.27;;;13.00;99.90;;;;;;4945808;28;20031;-51
2022/06/10 01:49:33;;;;;;;4.57;1.48;;;13.00;99.90;;;;;;4949989;28;20138;-53
2022/06/10 01:52:32;;;;;;;6.38;1.30;;;13.00;99.90;;;;;;4951620;28;20448;-50
2022/06/10 01:55:26;;;;;;;4.97;0.93;;;13.00;99.90;;;;;;4945703;28;20043;-50
2022/06/10 01:58:10;;;;;;;4.07;1.35;;;13.00;99.90;;;;;;4946370;28;20039;-52
2022/06/10 02:00:39;;;;;;;7.97;1.75;;;13.00;99.90;;;;;;4951577;28;20500;-49
2022/06/10 02:03:21;;;;;;;4.90;1.30;;;13.00;99.90;;;;;;4949831;28;20046;-49
2022/06/10 02:05:58;;;;;;;3.55;1.52;;;12.90;99.90;;;;;;4950445;28;20161;-49
2022/06/10 02:08:30;;;;;;;4.45;1.50;;;12.90;99.90;;;;;;4930999;28;20093;-51
2022/06/10 02:10:59;;;;;;;5.53;1.30;;;12.90;99.90;;;;;;4949995;28;20058;-48
2022/06/10 02:13:31;;;;;;;7.32;1.20;;;12.80;99.90;;;;;;4945637;28;20105;-52
2022/06/10 02:15:59;;;;;;;;;;;12.80;99.90;;;;;;4950699;28;20047;-52
2022/06/10 02:18:39;;;;;;;5.05;1.30;;;12.80;99.90;;;;;;4954824;28;20443;-49
2022/06/10 02:21:18;;;;;;;6.80;1.42;;;12.80;99.90;;;;;;4948686;28;20039;-52
2022/06/10 02:23:50;;;;;;;7.95;1.38;;;12.70;99.90;;;;;;4948014;28;20481;-52
2022/06/10 02:26:17;;;;;;;7.32;1.58;;;12.70;99.90;;;;;;4948368;28;20035;-52
2022/06/10 02:28:50;;;;;;;5.95;1.70;;;12.70;99.90;;;;;;4957697;28;20042;-51
2022/06/10 02:31:16;;;;;;;5.75;1.60;;;12.70;99.90;;;;;;4957870;29;20054;-54
2022/06/10 02:33:42;;;;;;;5.60;1.33;;;12.70;99.90;;;;;;4956132;28;20072;-51
2022/06/10 02:36:57;;;;;;;8.13;1.27;;;12.70;99.90;;;;;;4955230;28;20051;-52
2022/06/10 02:39:56;;;;;;;8.00;1.55;;;12.70;99.90;;;;;;4910697;29;20047;-52
2022/06/10 02:42:47;;;;;;;4.03;1.20;;;12.70;99.90;;;;;;4954073;28;20047;-51
2022/06/10 02:45:45;;;;;;;5.82;1.45;;;12.70;99.90;;;;;;4954628;28;20489;-51
2022/06/10 02:48:28;;;;;;;5.35;1.30;;;12.60;99.90;;;;;;4953877;28;20127;-48
2022/06/10 02:50:54;;;;;;;7.80;1.48;;;12.60;99.90;;;;;;4956009;28;20410;-52
2022/06/10 02:53:19;;;;;;;6.22;1.38;;;12.60;99.90;;;;;;4958508;28;20039;-52
2022/06/10 02:55:45;;;;;;;6.63;1.27;;;12.60;99.90;;;;;;4961918;28;20400;-52
2022/06/10 03:01:12;;;;;;;5.43;1.75;;;12.60;99.90;;;;;;4952687;28;20043;-52
2022/06/10 03:03:59;;;;;;;5.10;1.65;;;12.60;99.90;;;;;;4955252;28;20655;-51
2022/06/10 03:06:32;;;;;;;6.05;1.83;;;12.50;99.90;;;;;;4959631;28;20043;-50
2022/06/10 03:09:38;;;;;;;6.38;1.35;;;12.60;99.90;;;;;;4955768;28;20046;-52
2022/06/10 03:12:37;;;;;;;8.95;1.80;;;12.50;99.90;;;;;;4956070;28;20110;-51
2022/06/10 03:15:12;;;;;;;11.82;2.78;;;12.50;99.90;;;;;;4940177;28;20849;-51
2022/06/10 03:18:22;;;;;;;5.18;1.40;;;12.60;99.90;;;;;;4954984;28;20047;-49
2022/06/10 03:21:16;;;;;;;6.35;1.80;;;12.50;99.90;;;;;;4955665;29;20514;-52
2022/06/10 03:23:58;;;;;;;5.45;1.63;;;12.50;99.90;;;;;;4925394;28;20054;-49
2022/06/10 03:26:40;;;;;;;8.07;1.63;;;12.50;99.90;;;;;;4953235;28;20050;-52
2022/06/10 03:29:08;;;;;;;6.47;1.70;;;12.50;99.90;;;;;;4956739;28;20053;-52
2022/06/10 03:31:42;;;;;;;6.75;1.70;;;12.40;99.90;;;;;;4959173;28;20411;-52
2022/06/10 03:34:18;;;;;;;8.30;1.50;;;12.50;99.90;;;;;;4954493;28;20043;-50
2022/06/10 03:36:46;;;;;;;5.30;1.77;;;12.50;99.90;;;;;;4942632;29;20126;-51
2022/06/10 03:39:13;;;;;;;7.43;1.77;;;12.50;99.90;;;;;;4950788;28;20112;-49
2022/06/10 03:42:03;;;;;;;9.40;2.25;;;12.50;99.90;;;;;;4960160;28;20050;-50
2022/06/10 03:44:31;;;;;;;8.02;1.90;;;12.60;99.90;;;;;;4951123;28;20617;-43
2022/06/10 03:46:57;;;;;;;7.90;1.70;;;12.60;99.90;;;;;;4952097;28;20040;-49
2022/06/10 03:49:38;;;;;;;11.90;1.95;;;12.60;99.90;;;;;;4952802;28;20497;-52
2022/06/10 03:52:05;;;;;;;7.40;1.73;;;12.60;99.90;;;;;;4950083;28;20057;-48
2022/06/10 03:54:30;;;;;;;5.63;1.73;;;12.60;99.90;;;;;;4954771;28;20046;-51
2022/06/10 03:56:56;;;;;;;8.57;1.90;;;12.60;99.90;;;;;;4951115;28;20462;-52
2022/06/10 03:59:22;;;;;;;5.13;1.35;;;12.60;99.90;;;;;;4951114;28;20039;-51
2022/06/10 04:01:47;;;;;;;6.80;1.48;;;12.70;99.90;;;;;;4935569;29;20043;-47
2022/06/10 04:04:14;;;;;;;6.07;1.65;;;12.70;99.90;;;;;;4936582;28;20111;-50
2022/06/10 04:06:39;;;;;;;10.45;1.83;;;12.80;99.90;;;;;;4949543;28;20110;-52
2022/06/10 04:09:05;;;;;;;7.38;2.63;;;12.80;99.90;;;;;;4936146;28;20039;-51
2022/06/10 04:11:31;;;;;;;5.40;2.05;;;12.90;99.90;;;;;;4950593;28;20039;-52
2022/06/10 04:13:57;;;;;;;7.90;2.17;;;12.90;99.90;;;;;;4935029;29;20074;-49
2022/06/10 04:16:22;;;;;;;7.57;2.40;;;13.00;99.90;;;;;;4951320;28;20051;-48
2022/06/10 04:18:48;;;;;;;6.18;1.60;;;13.00;99.90;;;;;;4949343;28;20039;-51
2022/06/10 04:21:14;;;;;;;6.78;2.50;;;13.10;99.90;;;;;;4940846;28;20039;-49
2022/06/10 04:23:39;;;;;;;8.30;2.28;;;13.10;99.90;;;;;;4955504;28;20094;-51
2022/06/10 04:26:05;;;;;;;10.43;2.65;;;13.20;99.90;;;;;;4958746;28;20067;-50
2022/06/10 04:28:31;;;;;;;10.00;2.20;;;13.20;99.90;;;;;;4949867;28;20090;-51
2022/06/10 04:30:57;;;;;;;6.53;2.33;;;13.30;99.90;;;;;;4958801;28;20070;-45
2022/06/10 04:33:23;;;;;;;7.60;2.05;;;13.40;99.90;;;;;;4951830;28;20132;-51
2022/06/10 04:35:50;;;;;;;7.30;2.45;;;13.40;99.90;;;;;;4933155;28;20426;-50
2022/06/10 04:38:21;;;;;;;9.10;2.85;;;13.50;99.90;;;;;;4950887;28;20039;-51
2022/06/10 04:40:48;;;;;;;6.95;2.45;;;13.60;99.90;;;;;;4952235;28;20034;-50
2022/06/10 04:43:15;;;;;;;9.85;2.95;;;13.60;99.90;;;;;;4952357;28;20461;-49
2022/06/10 04:45:44;;;;;;;9.07;2.50;;;13.70;99.90;;;;;;4935326;28;20046;-49
2022/06/10 04:48:11;;;;;;;7.47;2.28;;;13.70;99.90;;;;;;4933582;28;20051;-50
2022/06/10 04:50:38;;;;;;;8.65;2.35;;;13.60;99.90;;;;;;4950169;28;20587;-43
2022/06/10 04:53:03;;;;;;;5.75;2.05;;;13.60;99.90;;;;;;4950733;28;20039;-50
2022/06/10 04:55:29;;;;;;;9.85;2.60;;;13.60;99.90;;;;;;4960541;28;20039;-51
2022/06/10 04:57:55;;;;;;;7.90;2.45;;;13.60;99.90;;;;;;4952833;28;20537;-51
2022/06/10 05:00:29;;;;;;;7.68;2.33;;;13.60;99.90;;;;;;4952329;28;20047;-52
2022/06/10 05:02:55;;;;;;;9.18;2.42;;;13.70;99.90;;;;;;4953828;28;20489;-42
2022/06/10 05:05:21;;;;;;;8.07;2.13;;;13.70;99.90;;;;;;4938374;28;20048;-51
2022/06/10 05:07:47;;;;;;;7.10;2.10;;;13.80;99.90;;;;;;4944890;28;20122;-48
2022/06/10 05:10:14;;;;;;;5.80;1.77;;;13.90;99.90;;;;;;4949850;28;20461;-47
2022/06/10 05:12:40;;;;;;;8.25;1.80;;;14.00;99.90;;;;;;4952002;28;20054;-51
2022/06/10 05:15:07;;;;;;;8.23;2.08;;;14.00;99.90;;;;;;4951378;28;20047;-51
2022/06/10 05:17:33;;;;;;;7.63;2.53;;;14.10;99.90;;;;;;4951753;29;20556;-43
2022/06/10 05:19:58;;;;;;;8.77;1.98;;;14.10;99.90;;;;;;4951177;28;20043;-51
2022/06/10 05:22:24;;;;;;;7.45;2.00;;;14.10;99.90;;;;;;4952301;28;20113;-50
2022/06/10 05:24:50;;;;;;;7.10;2.40;;;14.10;99.90;;;;;;4952124;28;20071;-49
2022/06/10 05:27:16;;;;;;;7.35;1.92;;;14.10;99.90;;;;;;4953974;28;20088;-47
2022/06/10 05:29:42;;;;;;;8.52;2.13;;;14.20;99.90;;;;;;4949893;28;20479;-51
2022/06/10 05:32:08;;;;;;;10.10;2.35;;;14.20;99.90;;;;;;4950839;28;20047;-49
2022/06/10 05:34:46;;;;;;;4.95;2.00;;;14.20;99.90;;;;;;4944254;28;20404;-48
2022/06/10 05:37:25;;;;;;;10.48;2.10;;;14.20;99.90;;;;;;4950728;28;20043;-52
2022/06/10 05:39:52;;;;;;;7.43;1.92;;;14.30;99.90;;;;;;4952498;28;20039;-48
2022/06/10 05:42:18;;;;;;;7.80;2.50;;;14.30;99.90;;;;;;4950411;28;20066;-47
2022/06/10 05:44:47;;;;;;;6.63;2.53;;;14.40;99.90;;;;;;4954597;28;20041;-51
2022/06/10 05:47:19;;;;;;;7.55;1.90;;;14.50;99.90;;;;;;4939153;28;20079;-46
2022/06/10 05:49:49;;;;;;;;;;;14.50;99.90;;;;;;4948018;28;20119;-51
2022/06/10 05:52:17;;;;;;;8.90;2.10;;;14.60;99.90;;;;;;4945049;28;19973;-50
2022/06/10 05:54:46;;;;;;;7.45;2.17;;;14.60;99.90;;;;;;4947201;28;20768;-51
2022/06/10 05:57:13;;;;;;;6.45;2.75;;;14.70;99.90;;;;;;4936421;28;20079;-50
2022/06/10 05:59:39;;;;;;;8.45;2.38;;;14.70;99.90;;;;;;4951785;28;20065;-48
2022/06/10 06:02:08;;;;;;;10.02;1.92;;;14.80;99.90;;;;;;4944744;28;20500;-50
2022/06/10 06:04:34;;;;;;;7.80;2.00;;;14.90;99.90;;;;;;4927793;28;20039;-51
2022/06/10 06:07:00;;;;;;;11.13;2.40;;;14.80;99.90;;;;;;4950831;28;20039;-50
2022/06/10 06:09:26;;;;;;;9.27;2.80;;;14.90;99.90;;;;;;4946246;28;20549;-51
2022/06/10 06:11:57;;;;;;;7.40;1.95;;;14.90;99.90;;;;;;4951275;28;20122;-51
2022/06/10 06:14:25;;;;;;;9.10;2.25;;;14.90;99.90;;;;;;4942208;28;20079;-50
2022/06/10 06:16:54;;;;;;;8.85;2.22;;;14.90;99.90;;;;;;4943966;28;20505;-48
2022/06/10 06:19:20;;;;;;;6.88;2.70;;;15.00;99.90;;;;;;4940483;28;20437;-45
2022/06/10 06:21:46;;;;;;;5.13;2.05;;;15.00;99.90;;;;;;4935518;28;20053;-50
2022/06/10 06:24:12;;;;;;;9.93;2.88;;;15.10;99.90;;;;;;4930784;29;20063;-51
2022/06/10 06:26:37;;;;;;;6.43;2.30;;;15.20;99.90;;;;;;4937433;28;20461;-51
2022/06/10 06:29:03;;;;;;;9.10;2.45;;;15.30;99.90;;;;;;4947737;28;20045;-52
2022/06/10 06:31:29;;;;;;;7.20;2.40;;;15.40;99.90;;;;;;4949256;28;20507;-48
2022/06/10 06:33:55;;;;;;;9.73;2.67;;;15.50;99.90;;;;;;4953411;28;20035;-47
2022/06/10 06:36:23;;;;;;;11.23;2.22;;;15.50;99.90;;;;;;4946162;28;20321;-50
2022/06/10 06:38:50;;;;;;;7.00;2.75;;;15.60;99.90;;;;;;4949572;28;20218;-47
2022/06/10 06:41:17;;;;;;;11.77;4.18;;;15.60;99.90;;;;;;4937370;28;20078;-49
2022/06/10 06:43:43;;;;;;;13.65;3.83;;;15.70;99.90;;;;;;4940853;28;20622;-48
2022/06/10 06:46:13;;;;;;;8.07;3.00;;;15.80;99.90;;;;;;4945296;28;20046;-50
2022/06/10 06:48:40;;;;;;;8.45;2.95;;;15.80;99.90;;;;;;4949171;28;20035;-51
2022/06/10 06:51:06;;;;;;;7.68;2.35;;;15.80;99.90;;;;;;4946172;29;20489;-52
2022/06/10 06:53:36;;;;;;;7.10;2.33;;;15.80;99.90;;;;;;4945119;28;20058;-50
2022/06/10 06:56:03;;;;;;;8.57;2.90;;;15.90;99.90;;;;;;4949764;28;20405;-50
2022/06/10 06:58:29;;;;;;;5.15;2.30;;;15.90;99.90;;;;;;4940465;28;20175;-50
2022/06/10 07:00:55;;;;;;;9.15;2.90;;;16.00;99.90;;;;;;4951799;28;20035;-50
2022/06/10 07:03:21;;;;;;;5.80;2.45;;;16.10;99.90;;;;;;4952800;28;20456;-51
2022/06/10 07:05:48;;;;;;;7.55;2.70;;;16.10;99.90;;;;;;4951711;28;20374;-51
2022/06/10 07:08:14;;;;;;;7.85;3.72;;;16.20;99.90;;;;;;4944039;28;20928;-51
2022/06/10 07:10:40;;;;;;;6.80;2.03;;;16.30;99.90;;;;;;4930016;28;20043;-50
2022/06/10 07:13:06;;;;;;;7.57;2.15;;;16.40;99.90;;;;;;4954565;28;20139;-52
2022/06/10 07:15:32;;;;;;;7.30;2.00;;;16.50;99.90;;;;;;4950358;28;20512;-51
2022/06/10 07:18:00;;;;;;;5.40;2.08;;;16.60;99.90;;;;;;4952958;28;20050;-49
2022/06/10 07:20:33;;;;;;;5.85;1.95;;;16.60;99.90;;;;;;4950308;28;20154;-51
2022/06/10 07:22:59;;;;;;;6.30;2.25;;;16.70;99.90;;;;;;4948670;28;20050;-49
2022/06/10 07:25:26;;;;;;;9.32;1.80;;;16.80;99.90;;;;;;4950407;28;20521;-51
2022/06/10 07:27:55;;;;;;;9.80;1.90;;;16.90;99.90;;;;;;4946174;28;20119;-49
2022/06/10 07:30:25;;;;;;;8.10;1.90;;;16.90;99.90;;;;;;4952457;28;20079;-51
2022/06/10 07:32:51;;;;;;;6.88;1.80;;;16.90;99.90;;;;;;4951445;28;20057;-51
2022/06/10 07:35:18;;;;;;;8.23;1.85;;;16.90;99.90;;;;;;4946729;28;20485;-49
2022/06/10 07:37:45;;;;;;;5.25;1.90;;;16.90;99.90;;;;;;4946837;28;20054;-50
2022/06/10 07:43:01;;;;;;;9.70;1.98;;;16.90;99.90;;;;;;4946154;29;20047;-50
2022/06/10 07:45:28;;;;;;;5.30;1.42;;;16.90;99.90;;;;;;4952174;28;20566;-50
2022/06/10 07:47:54;;;;;;;6.45;1.80;;;16.90;99.90;;;;;;4947904;28;21628;-51
2022/06/10 07:50:22;;;;;;;6.25;1.55;;;17.00;99.90;;;;;;4944651;28;20075;-51
2022/06/10 07:52:49;;;;;;;9.45;2.03;;;17.00;99.90;;;;;;4928575;28;20126;-50
2022/06/10 07:55:19;;;;;;;8.10;1.50;;;17.00;99.90;;;;;;4949490;28;20039;-50
2022/06/10 07:57:45;;;;;;;6.30;1.38;;;17.00;99.90;;;;;;4945805;28;20086;-51
2022/06/10 08:00:12;;;;;;;6.60;1.80;;;17.00;99.90;;;;;;4947603;28;20126;-52
2022/06/10 08:02:39;;;;;;;5.35;1.50;;;17.00;99.90;;;;;;4948071;28;20465;-52
2022/06/10 08:05:06;;;;;;;5.15;1.63;;;16.90;99.90;;;;;;4948905;28;20118;-51
2022/06/10 08:07:32;;;;;;;7.07;1.90;;;17.00;99.90;;;;;;4953056;28;20054;-52
2022/06/10 08:09:57;;;;;;;6.38;1.40;;;17.00;99.90;;;;;;4945366;28;20051;-51
2022/06/10 08:12:23;;;;;;;8.00;2.40;;;17.10;99.90;;;;;;4942466;28;20031;-51
2022/06/10 08:14:49;;;;;;;8.07;1.83;;;17.10;99.90;;;;;;4945982;28;20143;-50
2022/06/10 08:17:16;;;;;;;8.07;2.50;;;17.20;99.90;;;;;;4947569;28;20070;-51
2022/06/10 08:19:42;;;;;;;8.23;1.95;;;17.30;99.90;;;;;;4947181;28;20044;-51
2022/06/10 08:24:53;;;;;;;7.50;2.10;;;17.30;99.90;;;;;;4948762;28;20519;-51
2022/06/10 08:27:20;;;;;;;6.72;1.70;;;17.40;99.90;;;;;;4944625;28;20068;-47
2022/06/10 08:29:45;;;;;;;6.47;1.73;;;17.40;99.90;;;;;;4948033;28;20039;-48
2022/06/10 08:32:11;;;;;;;6.30;1.50;;;17.30;99.90;;;;;;4943142;28;20673;-50
2022/06/10 08:34:41;;;;;;;12.48;2.53;;;17.30;99.90;;;;;;4944468;28;20050;-51
2022/06/10 08:37:10;;;;;;;8.35;2.28;;;17.30;99.90;;;;;;4925732;28;20055;-49
2022/06/10 08:39:36;;;;;;;6.15;1.70;;;17.30;99.90;;;;;;4944532;28;20185;-50
2022/06/10 08:42:11;;;;;;;4.13;1.63;;;17.30;99.90;;;;;;4945232;28;20122;-49
2022/06/10 08:45:01;;;;;;;4.95;1.30;;;17.30;99.90;;;;;;4948579;28;20101;-51
2022/06/10 08:47:54;;;;;;;6.30;1.52;;;17.30;99.90;;;;;;4945996;28;20039;-51
2022/06/10 08:50:41;;;;;;;5.03;1.60;;;17.40;99.90;;;;;;4947554;28;20039;-50
2022/06/10 08:53:49;;;;;;;6.38;2.00;;;17.40;99.90;;;;;;4952252;28;20047;-57
2022/06/10 08:56:26;;;;;;;8.27;1.92;;;17.40;99.90;;;;;;4944268;28;20047;-51
2022/06/10 08:59:13;;;;;;;5.10;1.70;;;17.50;99.90;;;;;;4949740;28;20492;-50
2022/06/10 09:02:00;;;;;;;6.68;1.90;;;17.60;99.90;;;;;;4945296;28;20063;-48
2022/06/10 09:04:26;;;;;;;7.53;1.67;;;17.70;99.90;;;;;;4949487;28;20130;-45
2022/06/10 09:06:57;;;;;;;8.32;2.03;;;17.80;99.90;;;;;;4947135;28;20122;-51
2022/06/10 09:09:26;;;;;;;8.53;1.80;;;17.90;99.90;;;;;;4942652;28;20035;-51
2022/06/10 09:12:11;;;;;;;6.78;1.85;;;18.00;99.90;;;;;;4945276;28;20039;-51
2022/06/10 09:14:37;;;;;;;9.35;2.55;;;18.20;99.90;;;;;;4947772;28;20134;-50
2022/06/10 09:17:09;;;;;;;8.43;1.70;;;18.30;99.90;;;;;;4947132;28;20057;-49
2022/06/10 09:19:51;;;;;;;7.10;1.80;;;18.40;99.90;;;;;;4950446;28;20039;-48
2022/06/10 09:22:35;;;;;;;6.25;1.65;;;18.60;99.90;;;;;;4946041;28;20531;-51
2022/06/10 09:25:10;;;;;;;7.38;1.95;;;18.70;99.90;;;;;;4947055;28;20461;-51
2022/06/10 09:27:44;;;;;;;5.63;1.92;;;18.70;99.90;;;;;;4946647;28;20032;-51
2022/06/10 09:30:13;;;;;;;7.38;1.98;;;18.70;99.90;;;;;;4947718;28;20070;-51
2022/06/10 09:33:06;;;;;;;7.22;1.33;;;18.70;99.90;;;;;;4947005;28;20552;-49
2022/06/10 09:35:45;;;;;;;4.65;1.65;;;18.80;99.90;;;;;;4938597;28;20532;-47
2022/06/10 09:38:37;;;;;;;6.60;1.50;;;19.10;99.90;;;;;;4944331;28;20066;-47
2022/06/10 09:41:26;;;;;;;6.50;1.95;;;19.30;99.90;;;;;;4933465;29;20573;-49
2022/06/10 09:44:14;;;;;;;6.68;2.38;;;19.50;99.90;;;;;;4946365;28;20054;-46
2022/06/10 09:47:09;;;;;;;10.20;1.85;;;19.60;99.90;;;;;;4946901;28;20110;-51
2022/06/10 09:49:56;;;;;;;7.20;1.83;;;19.70;99.90;;;;;;4944960;28;20441;-48
2022/06/10 09:52:40;;;;;;;9.02;2.08;;;19.80;99.90;;;;;;4940329;28;20178;-48
2022/06/10 09:55:19;;;;;;;7.88;1.98;;;19.80;99.90;;;;;;4945296;29;20053;-49
2022/06/10 09:58:00;;;;;;;7.05;2.00;;;19.90;99.90;;;;;;4941661;28;20050;-47
2022/06/10 10:00:41;;;;;;;7.53;2.38;;;20.10;99.90;;;;;;4948149;28;20051;-49
2022/06/10 10:03:31;;;;;;;5.53;1.58;;;20.20;99.90;;;;;;4941662;28;20043;-44
2022/06/10 10:06:02;;;;;;;5.82;1.80;;;20.40;99.90;;;;;;4942490;28;22355;-51
2022/06/10 10:08:37;;;;;;;9.65;1.88;;;20.50;99.90;;;;;;4952390;28;20804;-48
2022/06/10 10:11:28;;;;;;;4.70;2.10;;;20.60;99.90;;;;;;4944228;28;20412;-51
2022/06/10 10:14:04;;;;;;;3.65;1.85;;;20.80;99.30;;;;;;4948192;28;20079;-44
2022/06/10 10:16:56;;;;;;;7.03;2.15;;;20.90;98.90;;;;;;4948175;28;20477;-48
2022/06/10 10:19:37;;;;;;;5.90;1.90;;;21.00;97.10;;;;;;4945746;28;20086;-48
2022/06/10 10:22:30;;;;;;;9.15;2.50;;;21.10;97.20;;;;;;4943938;28;20099;-48
2022/06/10 10:24:56;;;;;;;8.48;1.98;;;21.00;96.50;;;;;;4946591;28;20528;-51
2022/06/10 10:27:28;;;;;;;7.95;1.92;;;21.00;98.20;;;;;;4939280;28;20039;-46
2022/06/10 10:30:25;;;;;;;7.70;2.05;;;20.90;98.00;;;;;;4943010;28;20130;-45
2022/06/10 10:33:09;;;;;;;9.13;1.80;;;20.70;97.60;;;;;;4941403;28;20049;-49
2022/06/10 10:35:56;;;;;;;7.97;2.20;;;20.60;97.60;;;;;;4947395;28;20054;-49
2022/06/10 10:38:48;;;;;;;13.18;1.50;;;20.60;98.20;;;;;;4940183;28;20074;-51
2022/06/10 10:41:38;;;;;;;5.82;1.40;;;20.70;98.20;;;;;;4947068;28;20055;-42
2022/06/10 10:44:19;;;;;;;5.18;1.90;;;20.80;96.90;;;;;;4943016;28;20506;-43
2022/06/10 10:47:11;;;;;;;4.13;1.65;;;21.00;96.90;;;;;;4939418;28;20043;-42
2022/06/10 10:49:47;;;;;;;6.47;1.75;;;21.10;96.30;;;;;;4916781;28;20373;-42
2022/06/10 10:52:16;;;;;;;4.68;1.45;;;21.30;97.10;;;;;;4952568;28;20043;-44
2022/06/10 10:54:44;;;;;;;5.43;1.60;;;21.40;95.90;;;;;;4947677;28;20062;-43
2022/06/10 10:57:37;;;;;;;4.28;1.10;;;21.40;95.50;;;;;;4947243;28;20197;-43
2022/06/10 11:00:15;;;;;;;6.90;1.30;;;21.20;96.00;;;;;;4944914;28;20085;-43
2022/06/10 11:02:51;;;;;;;8.98;1.30;;;21.20;96.00;;;;;;4962862;28;20054;-42
2022/06/10 11:05:31;;;;;;;4.00;1.40;;;21.20;95.30;;;;;;4951559;28;20496;-43
2022/06/10 11:08:17;;;;;;;4.40;1.33;;;21.30;94.30;;;;;;4928974;28;20046;-45
2022/06/10 11:11:04;;;;;;;10.25;1.75;;;21.40;93.80;;;;;;4942485;28;20047;-42
2022/06/10 11:13:46;;;;;;;4.93;1.40;;;21.50;92.90;;;;;;4931092;28;20122;-42
2022/06/10 11:16:26;;;;;;;8.43;1.85;;;21.50;93.60;;;;;;4950279;28;20446;-43
2022/06/10 11:19:05;;;;;;;10.63;1.75;;;21.50;92.50;;;;;;4948413;28;20097;-44
2022/06/10 11:21:44;;;;;;;5.63;1.52;;;21.60;93.10;;;;;;4945083;28;20039;-42
2022/06/10 11:24:16;;;;;;;7.18;1.80;;;21.60;92.70;;;;;;4947408;28;20511;-42
2022/06/10 11:26:53;;;;;;;5.05;1.60;;;21.70;92.80;;;;;;4927379;29;20042;-43
2022/06/10 11:29:19;;;;;;;6.50;1.35;;;21.70;93.30;;;;;;4946863;28;20047;-42
2022/06/10 11:31:55;;;;;;;5.70;1.55;;;21.70;92.90;;;;;;4950713;28;20429;-43
2022/06/10 11:34:44;;;;;;;4.97;1.60;;;21.70;92.60;;;;;;4945595;28;20623;-43
2022/06/10 11:37:28;;;;;;;5.20;1.60;;;21.70;91.40;;;;;;4950583;29;20130;-42
2022/06/10 11:40:21;;;;;;;7.00;1.75;;;21.70;90.80;;;;;;4951700;28;20608;-43
2022/06/10 11:43:12;;;;;;;6.85;1.60;;;21.70;91.20;;;;;;4952223;28;20480;-44
2022/06/10 11:45:55;;;;;;;6.38;1.70;;;21.70;91.50;;;;;;4948339;28;20047;-43
2022/06/10 11:48:49;;;;;;;8.88;1.63;;;21.70;91.10;;;;;;4945101;28;20084;-42
2022/06/10 11:51:21;;;;;;;8.35;2.15;;;21.90;91.50;;;;;;4951131;29;20047;-43
2022/06/10 11:54:30;;;;;;;6.97;1.85;;;22.00;91.00;;;;;;4948608;28;20548;-43
2022/06/10 12:00:00;;;;;;;7.03;1.80;;;21.80;91.00;;;;;;4943968;28;20043;-43
2022/06/10 12:02:41;;;;;;;7.50;1.88;;;21.70;90.50;;;;;;4931660;28;20039;-43
2022/06/10 12:05:20;;;;;;;5.75;2.85;;;21.80;90.80;;;;;;4947381;28;20594;-42
2022/06/10 12:08:15;;;;;;;8.55;1.70;;;21.90;91.40;;;;;;4949904;29;20106;-42
2022/06/10 12:11:04;;;;;;;5.68;1.95;;;22.00;89.70;;;;;;4949290;28;20113;-43
2022/06/10 12:13:48;;;;;;;8.02;1.85;;;22.00;89.70;;;;;;4946432;28;20473;-42
2022/06/10 12:16:14;;;;;;;5.45;1.65;;;21.90;90.60;;;;;;4946947;28;20043;-42
2022/06/10 12:18:46;;;;;;;7.25;1.88;;;21.80;90.80;;;;;;4943494;29;20533;-42
2022/06/10 12:21:18;;;;;;;7.78;2.35;;;21.70;91.00;;;;;;4950076;28;20102;-43
2022/06/10 12:23:47;;;;;;;6.90;2.00;;;21.50;90.80;;;;;;4949505;28;20090;-43
2022/06/10 12:26:18;;;;;;;3.75;1.90;;;21.30;91.10;;;;;;4941275;28;20089;-44
2022/06/10 12:29:01;;;;;;;5.15;1.75;;;21.20;91.70;;;;;;4939671;29;20047;-41
2022/06/10 12:31:56;;;;;;;5.97;1.95;;;21.20;92.10;;;;;;4948074;28;20135;-43
2022/06/10 12:34:44;;;;;;;7.45;2.15;;;21.30;93.00;;;;;;4938581;28;20086;-44
2022/06/10 12:37:46;;;;;;;4.82;1.90;;;21.30;93.10;;;;;;4945545;28;20039;-43
2022/06/10 12:40:25;;;;;;;3.97;2.10;;;21.30;93.20;;;;;;4938365;29;20167;-42
2022/06/10 12:43:13;;;;;;;8.65;2.17;;;21.50;92.10;;;;;;4941063;28;20086;-44
2022/06/10 12:45:41;;;;;;;4.15;1.73;;;21.60;92.30;;;;;;4939129;28;20109;-43
2022/06/10 12:48:21;;;;;;;6.25;1.73;;;21.70;91.30;;;;;;4944425;28;20047;-41
2022/06/10 12:50:59;;;;;;;6.28;2.00;;;21.90;90.90;;;;;;4947162;28;20043;-41
2022/06/10 12:53:51;;;;;;;7.07;2.10;;;22.20;91.00;;;;;;4926251;29;20038;-43
2022/06/10 12:56:31;;;;;;;5.18;1.73;;;22.50;89.90;;;;;;4934293;28;20497;-44
2022/06/10 12:59:12;;;;;;;4.15;1.80;;;22.70;88.20;;;;;;4947380;28;20043;-43
2022/06/10 13:01:38;;;;;;;4.00;1.70;;;22.70;86.80;;;;;;4947936;28;20061;-42
2022/06/10 13:04:24;;;;;;;4.68;2.10;;;22.40;86.30;;;;;;4945702;28;20039;-42
2022/06/10 13:06:58;;;;;;;7.50;2.45;;;22.30;87.80;;;;;;4918394;28;20057;-43
2022/06/10 13:09:46;;;;;;;4.50;1.90;;;22.30;88.30;;;;;;4930264;29;20039;-41
2022/06/10 13:12:12;;;;;;;7.25;2.50;;;22.40;88.70;;;;;;4944111;28;20512;-43
2022/06/10 13:14:38;;;;;;;3.15;1.33;;;22.40;87.00;;;;;;4940292;29;20055;-45
2022/06/10 13:17:27;;;;;;;3.55;1.27;;;22.60;83.70;;;;;;4925626;29;20135;-42
2022/06/10 13:19:53;;;;;;;5.45;1.55;;;22.60;82.40;;;;;;4914800;29;20120;-43
2022/06/10 13:22:19;;;;;;;4.82;1.35;;;22.60;84.50;;;;;;4944808;29;20051;-43
2022/06/10 13:24:53;;;;;;;4.63;1.50;;;22.70;84.00;;;;;;4924966;29;20044;-41
2022/06/10 13:27:25;;;;;;;4.25;1.50;;;22.80;81.40;;;;;;4921374;29;20071;-42
2022/06/10 13:29:54;;;;;;;4.63;1.65;;;23.10;84.10;;;;;;4925236;29;20047;-43
2022/06/10 13:32:20;;;;;;;3.40;1.20;;;23.20;83.40;;;;;;4930192;29;20036;-42
2022/06/10 13:34:55;;;;;;;3.80;1.35;;;23.30;81.70;;;;;;4926215;29;20399;-41
2022/06/10 13:37:23;;;;;;;4.50;1.30;;;23.30;82.00;;;;;;4922104;29;20047;-43
2022/06/10 13:39:51;;;;;;;3.92;1.30;;;23.20;76.80;;;;;;4929265;28;20039;-41